sensor_id;sensor_type;location;lat;lon;timestamp;P1;durP1;ratioP1;P2;durP2;ratioP2
42092;SDS011;28974;50.316;18.960;2023-03-12T00:05:25;31.30;;;13.13;;
42092;SDS011;28974;50.316;18.960;2023-03-12T00:17:27;26.52;;;12.18;;
42092;SDS011;28974;50.316;18.960;2023-03-12T00:29:27;35.08;;;14.93;;
42092;SDS011;28974;50.316;18.960;2023-03-12T00:41:28;33.08;;;15.48;;
42092;SDS011;28974;50.316;18.960;2023-03-12T00:53:29;37.45;;;17.08;;
42092;SDS011;28974;50.316;18.960;2023-03-12T01:05:29;41.08;;;14.43;;
42092;SDS011;28974;50.316;18.960;2023-03-12T01:17:31;35.50;;;15.40;;
42092;SDS011;28974;50.316;18.960;2023-03-12T01:29:32;40.50;;;15.45;;
42092;SDS011;28974;50.316;18.960;2023-03-12T01:41:34;34.33;;;15.07;;
42092;SDS011;28974;50.316;18.960;2023-03-12T01:53:35;33.10;;;15.40;;
42092;SDS011;28974;50.316;18.960;2023-03-12T02:05:41;37.95;;;13.73;;
42092;SDS011;28974;50.316;18.960;2023-03-12T02:17:46;28.42;;;12.05;;
42092;SDS011;28974;50.316;18.960;2023-03-12T02:29:47;36.53;;;16.27;;
42092;SDS011;28974;50.316;18.960;2023-03-12T02:41:49;37.67;;;18.63;;
42092;SDS011;28974;50.316;18.960;2023-03-12T02:53:52;46.27;;;17.80;;
42092;SDS011;28974;50.316;18.960;2023-03-12T03:05:55;40.55;;;16.35;;
42092;SDS011;28974;50.316;18.960;2023-03-12T03:17:55;40.55;;;15.85;;
42092;SDS011;28974;50.316;18.960;2023-03-12T03:29:55;44.00;;;16.98;;
42092;SDS011;28974;50.316;18.960;2023-03-12T03:41:56;34.35;;;15.18;;
42092;SDS011;28974;50.316;18.960;2023-03-12T03:53:59;29.33;;;12.45;;
42092;SDS011;28974;50.316;18.960;2023-03-12T04:06:01;32.63;;;14.40;;
42092;SDS011;28974;50.316;18.960;2023-03-12T04:18:02;33.15;;;11.80;;
42092;SDS011;28974;50.316;18.960;2023-03-12T04:30:03;33.55;;;13.70;;
42092;SDS011;28974;50.316;18.960;2023-03-12T04:42:05;22.63;;;10.10;;
42092;SDS011;28974;50.316;18.960;2023-03-12T04:54:06;36.50;;;15.50;;
42092;SDS011;28974;50.316;18.960;2023-03-12T05:06:07;37.00;;;15.18;;
42092;SDS011;28974;50.316;18.960;2023-03-12T05:18:08;36.28;;;16.27;;
42092;SDS011;28974;50.316;18.960;2023-03-12T05:30:09;23.83;;;11.05;;
42092;SDS011;28974;50.316;18.960;2023-03-12T05:42:14;30.02;;;13.15;;
42092;SDS011;28974;50.316;18.960;2023-03-12T05:54:17;29.35;;;11.63;;
42092;SDS011;28974;50.316;18.960;2023-03-12T06:06:20;32.20;;;13.07;;
42092;SDS011;28974;50.316;18.960;2023-03-12T06:18:21;26.65;;;11.77;;
42092;SDS011;28974;50.316;18.960;2023-03-12T06:30:21;21.13;;;9.10;;
42092;SDS011;28974;50.316;18.960;2023-03-12T06:42:22;26.65;;;10.45;;
42092;SDS011;28974;50.316;18.960;2023-03-12T06:54:22;28.42;;;11.35;;
42092;SDS011;28974;50.316;18.960;2023-03-12T07:06:23;26.52;;;10.27;;
42092;SDS011;28974;50.316;18.960;2023-03-12T07:18:23;23.75;;;9.45;;
42092;SDS011;28974;50.316;18.960;2023-03-12T07:30:24;26.60;;;10.85;;
42092;SDS011;28974;50.316;18.960;2023-03-12T07:42:24;13.02;;;7.05;;
42092;SDS011;28974;50.316;18.960;2023-03-12T07:54:24;25.15;;;10.68;;
42092;SDS011;28974;50.316;18.960;2023-03-12T08:06:29;22.35;;;8.77;;
42092;SDS011;28974;50.316;18.960;2023-03-12T08:18:30;20.40;;;9.45;;
42092;SDS011;28974;50.316;18.960;2023-03-12T08:30:30;20.70;;;8.55;;
42092;SDS011;28974;50.316;18.960;2023-03-12T08:42:30;20.90;;;6.55;;
42092;SDS011;28974;50.316;18.960;2023-03-12T08:54:31;13.65;;;6.18;;
42092;SDS011;28974;50.316;18.960;2023-03-12T09:06:31;15.55;;;7.35;;
42092;SDS011;28974;50.316;18.960;2023-03-12T09:18:34;23.83;;;7.45;;
42092;SDS011;28974;50.316;18.960;2023-03-12T09:30:35;14.20;;;7.38;;
42092;SDS011;28974;50.316;18.960;2023-03-12T09:42:39;15.70;;;4.95;;
42092;SDS011;28974;50.316;18.960;2023-03-12T09:54:43;11.48;;;3.35;;
42092;SDS011;28974;50.316;18.960;2023-03-12T10:30:51;9.30;;;3.88;;
42092;SDS011;28974;50.316;18.960;2023-03-12T10:42:53;10.63;;;5.03;;
42092;SDS011;28974;50.316;18.960;2023-03-12T10:54:53;15.48;;;5.35;;
42092;SDS011;28974;50.316;18.960;2023-03-12T11:19:34;16.40;;;4.70;;
42092;SDS011;28974;50.316;18.960;2023-03-12T11:31:36;9.15;;;4.03;;
42092;SDS011;28974;50.316;18.960;2023-03-12T12:20:16;15.25;;;5.93;;
42092;SDS011;28974;50.316;18.960;2023-03-12T12:32:29;18.55;;;7.22;;
42092;SDS011;28974;50.316;18.960;2023-03-12T12:44:33;13.55;;;6.10;;
42092;SDS011;28974;50.316;18.960;2023-03-12T13:08:57;13.07;;;5.18;;
42092;SDS011;28974;50.316;18.960;2023-03-12T13:21:12;20.38;;;6.47;;
42092;SDS011;28974;50.316;18.960;2023-03-12T13:33:18;10.90;;;4.53;;
42092;SDS011;28974;50.316;18.960;2023-03-12T13:45:21;9.52;;;3.85;;
42092;SDS011;28974;50.316;18.960;2023-03-12T13:57:24;11.95;;;5.22;;
42092;SDS011;28974;50.316;18.960;2023-03-12T14:22:01;14.25;;;4.00;;
42092;SDS011;28974;50.316;18.960;2023-03-12T14:34:19;22.63;;;7.65;;
42092;SDS011;28974;50.316;18.960;2023-03-12T14:46:21;18.92;;;8.85;;
42092;SDS011;28974;50.316;18.960;2023-03-12T14:58:22;28.63;;;11.77;;
42092;SDS011;28974;50.316;18.960;2023-03-12T15:10:23;30.13;;;12.45;;
42092;SDS011;28974;50.316;18.960;2023-03-12T15:22:24;31.45;;;13.52;;
42092;SDS011;28974;50.316;18.960;2023-03-12T15:34:34;30.50;;;13.10;;
42092;SDS011;28974;50.316;18.960;2023-03-12T15:46:35;31.50;;;13.43;;
42092;SDS011;28974;50.316;18.960;2023-03-12T15:58:37;15.55;;;8.13;;
42092;SDS011;28974;50.316;18.960;2023-03-12T16:10:39;36.55;;;16.02;;
42092;SDS011;28974;50.316;18.960;2023-03-12T16:22:39;44.47;;;17.02;;
42092;SDS011;28974;50.316;18.960;2023-03-12T16:34:40;49.20;;;18.67;;
42092;SDS011;28974;50.316;18.960;2023-03-12T16:46:42;43.70;;;17.15;;
42092;SDS011;28974;50.316;18.960;2023-03-12T16:58:43;37.70;;;18.02;;
42092;SDS011;28974;50.316;18.960;2023-03-12T17:10:44;55.40;;;21.90;;
42092;SDS011;28974;50.316;18.960;2023-03-12T17:22:45;43.30;;;17.05;;
42092;SDS011;28974;50.316;18.960;2023-03-12T17:34:45;53.08;;;19.83;;
42092;SDS011;28974;50.316;18.960;2023-03-12T17:46:46;57.17;;;23.27;;
42092;SDS011;28974;50.316;18.960;2023-03-12T17:58:46;37.63;;;17.67;;
42092;SDS011;28974;50.316;18.960;2023-03-12T18:10:47;47.72;;;17.75;;
42092;SDS011;28974;50.316;18.960;2023-03-12T18:22:47;37.42;;;18.17;;
42092;SDS011;28974;50.316;18.960;2023-03-12T18:34:48;52.67;;;21.92;;
42092;SDS011;28974;50.316;18.960;2023-03-12T18:46:48;38.00;;;18.38;;
42092;SDS011;28974;50.316;18.960;2023-03-12T18:58:50;39.67;;;16.98;;
42092;SDS011;28974;50.316;18.960;2023-03-12T19:10:54;48.92;;;18.98;;
42092;SDS011;28974;50.316;18.960;2023-03-12T19:22:55;43.72;;;19.13;;
42092;SDS011;28974;50.316;18.960;2023-03-12T19:34:55;38.60;;;16.30;;
42092;SDS011;28974;50.316;18.960;2023-03-12T19:46:55;48.42;;;19.25;;
42092;SDS011;28974;50.316;18.960;2023-03-12T19:58:56;42.40;;;16.60;;
42092;SDS011;28974;50.316;18.960;2023-03-12T20:11:00;43.05;;;15.35;;
42092;SDS011;28974;50.316;18.960;2023-03-12T20:23:00;43.22;;;14.77;;
42092;SDS011;28974;50.316;18.960;2023-03-12T20:35:01;43.92;;;17.90;;
42092;SDS011;28974;50.316;18.960;2023-03-12T20:47:01;38.17;;;15.23;;
42092;SDS011;28974;50.316;18.960;2023-03-12T20:59:02;41.63;;;13.25;;
42092;SDS011;28974;50.316;18.960;2023-03-12T21:11:06;34.17;;;13.10;;
42092;SDS011;28974;50.316;18.960;2023-03-12T21:23:07;41.60;;;16.85;;
42092;SDS011;28974;50.316;18.960;2023-03-12T21:35:08;31.23;;;12.52;;
42092;SDS011;28974;50.316;18.960;2023-03-12T21:47:09;36.70;;;13.77;;
42092;SDS011;28974;50.316;18.960;2023-03-12T21:59:10;46.72;;;13.45;;
42092;SDS011;28974;50.316;18.960;2023-03-12T22:11:10;50.28;;;14.38;;
42092;SDS011;28974;50.316;18.960;2023-03-12T22:23:10;35.88;;;12.23;;
42092;SDS011;28974;50.316;18.960;2023-03-12T22:35:11;39.08;;;12.85;;
42092;SDS011;28974;50.316;18.960;2023-03-12T22:47:11;24.95;;;9.55;;
42092;SDS011;28974;50.316;18.960;2023-03-12T22:59:12;24.35;;;8.70;;
42092;SDS011;28974;50.316;18.960;2023-03-12T23:11:12;21.67;;;9.18;;
42092;SDS011;28974;50.316;18.960;2023-03-12T23:23:13;15.27;;;4.95;;
42092;SDS011;28974;50.316;18.960;2023-03-12T23:35:14;19.20;;;8.35;;
42092;SDS011;28974;50.316;18.960;2023-03-12T23:47:15;24.63;;;9.27;;
42092;SDS011;28974;50.316;18.960;2023-03-12T23:59:15;22.10;;;8.63;;
